sensor_id;sensor_type;location;lat;lon;timestamp;P1;durP1;ratioP1;P2;durP2;ratioP2
13244;SDS011;6689;53.400;12.486;2023-07-13T00:00:58;2.65;;;1.40;;
13244;SDS011;6689;53.400;12.486;2023-07-13T00:03:25;3.25;;;1.80;;
13244;SDS011;6689;53.400;12.486;2023-07-13T00:05:57;3.00;;;1.58;;
13244;SDS011;6689;53.400;12.486;2023-07-13T00:08:26;4.40;;;1.75;;
13244;SDS011;6689;53.400;12.486;2023-07-13T00:10:57;3.85;;;1.30;;
13244;SDS011;6689;53.400;12.486;2023-07-13T00:13:25;3.28;;;1.45;;
13244;SDS011;6689;53.400;12.486;2023-07-13T00:15:54;2.40;;;1.52;;
13244;SDS011;6689;53.400;12.486;2023-07-13T00:18:24;2.88;;;1.75;;
13244;SDS011;6689;53.400;12.486;2023-07-13T00:20:55;2.50;;;1.30;;
13244;SDS011;6689;53.400;12.486;2023-07-13T00:23:32;2.83;;;1.60;;
13244;SDS011;6689;53.400;12.486;2023-07-13T00:26:00;2.65;;;1.48;;
13244;SDS011;6689;53.400;12.486;2023-07-13T00:28:27;2.58;;;1.42;;
13244;SDS011;6689;53.400;12.486;2023-07-13T00:30:55;3.08;;;1.63;;
13244;SDS011;6689;53.400;12.486;2023-07-13T00:33:22;3.90;;;1.63;;
13244;SDS011;6689;53.400;12.486;2023-07-13T00:35:50;4.10;;;1.40;;
13244;SDS011;6689;53.400;12.486;2023-07-13T00:38:17;2.83;;;1.63;;
13244;SDS011;6689;53.400;12.486;2023-07-13T00:40:46;3.05;;;1.40;;
13244;SDS011;6689;53.400;12.486;2023-07-13T00:43:14;2.22;;;1.42;;
13244;SDS011;6689;53.400;12.486;2023-07-13T00:48:38;2.05;;;1.40;;
13244;SDS011;6689;53.400;12.486;2023-07-13T00:51:06;4.70;;;1.40;;
13244;SDS011;6689;53.400;12.486;2023-07-13T00:53:33;3.58;;;1.60;;
13244;SDS011;6689;53.400;12.486;2023-07-13T00:56:03;5.93;;;1.70;;
13244;SDS011;6689;53.400;12.486;2023-07-13T00:58:32;3.30;;;1.60;;
13244;SDS011;6689;53.400;12.486;2023-07-13T01:00:59;5.15;;;1.42;;
13244;SDS011;6689;53.400;12.486;2023-07-13T01:03:27;2.20;;;1.40;;
13244;SDS011;6689;53.400;12.486;2023-07-13T01:08:56;4.30;;;2.03;;
13244;SDS011;6689;53.400;12.486;2023-07-13T01:11:27;4.22;;;1.92;;
13244;SDS011;6689;53.400;12.486;2023-07-13T01:13:54;4.13;;;1.30;;
13244;SDS011;6689;53.400;12.486;2023-07-13T01:16:24;5.18;;;2.00;;
13244;SDS011;6689;53.400;12.486;2023-07-13T01:18:53;2.78;;;1.50;;
13244;SDS011;6689;53.400;12.486;2023-07-13T01:21:24;2.72;;;1.60;;
13244;SDS011;6689;53.400;12.486;2023-07-13T01:23:52;4.78;;;1.58;;
13244;SDS011;6689;53.400;12.486;2023-07-13T01:26:20;3.13;;;1.63;;
13244;SDS011;6689;53.400;12.486;2023-07-13T01:28:48;2.90;;;1.70;;
13244;SDS011;6689;53.400;12.486;2023-07-13T01:31:15;2.88;;;1.55;;
13244;SDS011;6689;53.400;12.486;2023-07-13T01:33:44;4.28;;;1.70;;
13244;SDS011;6689;53.400;12.486;2023-07-13T01:36:12;3.78;;;2.10;;
13244;SDS011;6689;53.400;12.486;2023-07-13T01:38:41;3.58;;;1.80;;
13244;SDS011;6689;53.400;12.486;2023-07-13T01:41:08;4.38;;;1.73;;
13244;SDS011;6689;53.400;12.486;2023-07-13T01:43:35;4.10;;;2.22;;
13244;SDS011;6689;53.400;12.486;2023-07-13T01:46:03;3.33;;;2.00;;
13244;SDS011;6689;53.400;12.486;2023-07-13T01:48:30;3.78;;;1.70;;
13244;SDS011;6689;53.400;12.486;2023-07-13T01:50:57;3.22;;;1.63;;
13244;SDS011;6689;53.400;12.486;2023-07-13T01:53:24;4.07;;;2.08;;
13244;SDS011;6689;53.400;12.486;2023-07-13T01:55:53;2.80;;;1.73;;
13244;SDS011;6689;53.400;12.486;2023-07-13T01:58:21;3.30;;;1.63;;
13244;SDS011;6689;53.400;12.486;2023-07-13T02:00:48;4.25;;;1.95;;
13244;SDS011;6689;53.400;12.486;2023-07-13T02:03:17;4.28;;;1.50;;
13244;SDS011;6689;53.400;12.486;2023-07-13T02:05:45;2.78;;;1.70;;
13244;SDS011;6689;53.400;12.486;2023-07-13T02:08:12;3.72;;;1.70;;
13244;SDS011;6689;53.400;12.486;2023-07-13T02:10:39;5.18;;;1.60;;
13244;SDS011;6689;53.400;12.486;2023-07-13T02:13:08;7.20;;;2.17;;
13244;SDS011;6689;53.400;12.486;2023-07-13T02:15:38;4.82;;;2.38;;
13244;SDS011;6689;53.400;12.486;2023-07-13T02:18:07;3.42;;;1.90;;
13244;SDS011;6689;53.400;12.486;2023-07-13T02:20:34;6.45;;;2.28;;
13244;SDS011;6689;53.400;12.486;2023-07-13T02:23:04;3.22;;;1.80;;
13244;SDS011;6689;53.400;12.486;2023-07-13T02:25:31;4.28;;;1.90;;
13244;SDS011;6689;53.400;12.486;2023-07-13T02:27:59;6.10;;;1.90;;
13244;SDS011;6689;53.400;12.486;2023-07-13T02:30:28;2.50;;;1.40;;
13244;SDS011;6689;53.400;12.486;2023-07-13T02:32:56;3.20;;;1.70;;
13244;SDS011;6689;53.400;12.486;2023-07-13T02:35:23;3.42;;;1.75;;
13244;SDS011;6689;53.400;12.486;2023-07-13T02:37:51;4.57;;;2.10;;
13244;SDS011;6689;53.400;12.486;2023-07-13T02:40:19;4.43;;;2.13;;
13244;SDS011;6689;53.400;12.486;2023-07-13T02:42:46;3.08;;;2.10;;
13244;SDS011;6689;53.400;12.486;2023-07-13T02:45:14;3.35;;;1.63;;
13244;SDS011;6689;53.400;12.486;2023-07-13T02:47:42;3.45;;;1.75;;
13244;SDS011;6689;53.400;12.486;2023-07-13T02:50:10;4.10;;;2.38;;
13244;SDS011;6689;53.400;12.486;2023-07-13T02:52:38;4.22;;;1.60;;
13244;SDS011;6689;53.400;12.486;2023-07-13T02:55:05;3.10;;;2.35;;
13244;SDS011;6689;53.400;12.486;2023-07-13T02:57:33;2.70;;;2.03;;
13244;SDS011;6689;53.400;12.486;2023-07-13T03:00:00;3.92;;;2.10;;
13244;SDS011;6689;53.400;12.486;2023-07-13T03:02:31;3.40;;;2.00;;
13244;SDS011;6689;53.400;12.486;2023-07-13T03:05:00;4.55;;;2.22;;
13244;SDS011;6689;53.400;12.486;2023-07-13T03:07:28;4.28;;;1.98;;
13244;SDS011;6689;53.400;12.486;2023-07-13T03:09:58;6.45;;;2.17;;
13244;SDS011;6689;53.400;12.486;2023-07-13T03:12:25;4.60;;;2.30;;
13244;SDS011;6689;53.400;12.486;2023-07-13T03:14:53;4.68;;;2.60;;
13244;SDS011;6689;53.400;12.486;2023-07-13T03:17:20;3.20;;;2.33;;
13244;SDS011;6689;53.400;12.486;2023-07-13T03:19:48;4.78;;;2.65;;
13244;SDS011;6689;53.400;12.486;2023-07-13T03:22:18;3.45;;;2.03;;
13244;SDS011;6689;53.400;12.486;2023-07-13T03:24:45;3.75;;;2.20;;
13244;SDS011;6689;53.400;12.486;2023-07-13T03:27:14;3.88;;;2.58;;
13244;SDS011;6689;53.400;12.486;2023-07-13T03:29:42;4.78;;;1.90;;
13244;SDS011;6689;53.400;12.486;2023-07-13T03:32:10;9.23;;;2.67;;
13244;SDS011;6689;53.400;12.486;2023-07-13T03:34:37;4.65;;;2.80;;
13244;SDS011;6689;53.400;12.486;2023-07-13T03:37:05;6.78;;;2.42;;
13244;SDS011;6689;53.400;12.486;2023-07-13T03:39:34;4.40;;;2.35;;
13244;SDS011;6689;53.400;12.486;2023-07-13T03:42:01;4.13;;;2.63;;
13244;SDS011;6689;53.400;12.486;2023-07-13T03:44:28;5.20;;;2.72;;
13244;SDS011;6689;53.400;12.486;2023-07-13T03:46:55;4.90;;;2.63;;
13244;SDS011;6689;53.400;12.486;2023-07-13T03:49:22;3.88;;;2.67;;
13244;SDS011;6689;53.400;12.486;2023-07-13T03:51:50;5.47;;;2.50;;
13244;SDS011;6689;53.400;12.486;2023-07-13T03:54:17;4.22;;;2.90;;
13244;SDS011;6689;53.400;12.486;2023-07-13T03:56:46;5.93;;;2.42;;
13244;SDS011;6689;53.400;12.486;2023-07-13T03:59:14;3.70;;;2.47;;
13244;SDS011;6689;53.400;12.486;2023-07-13T04:01:41;4.07;;;2.45;;
13244;SDS011;6689;53.400;12.486;2023-07-13T04:04:09;5.55;;;2.70;;
13244;SDS011;6689;53.400;12.486;2023-07-13T04:06:37;5.28;;;3.22;;
13244;SDS011;6689;53.400;12.486;2023-07-13T04:09:04;4.50;;;2.58;;
13244;SDS011;6689;53.400;12.486;2023-07-13T04:11:33;5.68;;;3.03;;
13244;SDS011;6689;53.400;12.486;2023-07-13T04:14:03;4.60;;;3.00;;
13244;SDS011;6689;53.400;12.486;2023-07-13T04:16:31;5.75;;;3.20;;
13244;SDS011;6689;53.400;12.486;2023-07-13T04:18:58;3.75;;;2.92;;
13244;SDS011;6689;53.400;12.486;2023-07-13T04:21:26;5.88;;;2.75;;
13244;SDS011;6689;53.400;12.486;2023-07-13T04:23:53;5.72;;;3.30;;
13244;SDS011;6689;53.400;12.486;2023-07-13T04:26:21;5.75;;;2.90;;
13244;SDS011;6689;53.400;12.486;2023-07-13T04:28:49;4.95;;;3.30;;
13244;SDS011;6689;53.400;12.486;2023-07-13T04:31:18;4.70;;;3.33;;
13244;SDS011;6689;53.400;12.486;2023-07-13T04:33:46;5.50;;;2.90;;
13244;SDS011;6689;53.400;12.486;2023-07-13T04:36:14;4.90;;;2.80;;
13244;SDS011;6689;53.400;12.486;2023-07-13T04:38:42;3.97;;;2.97;;
13244;SDS011;6689;53.400;12.486;2023-07-13T04:41:09;5.13;;;2.83;;
13244;SDS011;6689;53.400;12.486;2023-07-13T04:43:36;3.45;;;2.50;;
13244;SDS011;6689;53.400;12.486;2023-07-13T04:46:03;4.93;;;2.65;;
13244;SDS011;6689;53.400;12.486;2023-07-13T04:48:34;4.53;;;2.58;;
13244;SDS011;6689;53.400;12.486;2023-07-13T04:51:03;4.60;;;2.97;;
13244;SDS011;6689;53.400;12.486;2023-07-13T04:53:31;6.75;;;2.83;;
13244;SDS011;6689;53.400;12.486;2023-07-13T04:56:00;4.75;;;2.65;;
13244;SDS011;6689;53.400;12.486;2023-07-13T04:58:28;6.10;;;3.05;;
13244;SDS011;6689;53.400;12.486;2023-07-13T05:00:59;5.30;;;2.67;;
13244;SDS011;6689;53.400;12.486;2023-07-13T05:03:27;5.20;;;2.75;;
13244;SDS011;6689;53.400;12.486;2023-07-13T05:05:57;5.22;;;2.92;;
13244;SDS011;6689;53.400;12.486;2023-07-13T05:08:25;6.57;;;2.60;;
13244;SDS011;6689;53.400;12.486;2023-07-13T05:10:53;4.90;;;2.80;;
13244;SDS011;6689;53.400;12.486;2023-07-13T05:13:20;5.20;;;2.80;;
13244;SDS011;6689;53.400;12.486;2023-07-13T05:15:55;2.85;;;2.55;;
13244;SDS011;6689;53.400;12.486;2023-07-13T05:18:23;4.75;;;2.42;;
13244;SDS011;6689;53.400;12.486;2023-07-13T05:21:01;5.68;;;2.35;;
13244;SDS011;6689;53.400;12.486;2023-07-13T05:23:31;3.20;;;2.10;;
13244;SDS011;6689;53.400;12.486;2023-07-13T05:26:00;4.20;;;2.60;;
13244;SDS011;6689;53.400;12.486;2023-07-13T05:28:29;3.33;;;2.13;;
13244;SDS011;6689;53.400;12.486;2023-07-13T05:30:59;6.13;;;2.85;;
13244;SDS011;6689;53.400;12.486;2023-07-13T05:33:27;5.03;;;2.83;;
13244;SDS011;6689;53.400;12.486;2023-07-13T05:35:55;4.03;;;2.50;;
13244;SDS011;6689;53.400;12.486;2023-07-13T05:38:24;3.67;;;2.15;;
13244;SDS011;6689;53.400;12.486;2023-07-13T05:40:52;3.35;;;2.35;;
13244;SDS011;6689;53.400;12.486;2023-07-13T05:43:21;4.22;;;2.15;;
13244;SDS011;6689;53.400;12.486;2023-07-13T05:45:50;4.45;;;2.75;;
13244;SDS011;6689;53.400;12.486;2023-07-13T05:48:19;5.68;;;2.58;;
13244;SDS011;6689;53.400;12.486;2023-07-13T05:50:48;5.90;;;2.55;;
13244;SDS011;6689;53.400;12.486;2023-07-13T05:53:16;3.28;;;2.10;;
13244;SDS011;6689;53.400;12.486;2023-07-13T05:55:44;5.18;;;2.20;;
13244;SDS011;6689;53.400;12.486;2023-07-13T05:58:15;5.55;;;2.30;;
13244;SDS011;6689;53.400;12.486;2023-07-13T06:00:43;2.72;;;2.33;;
13244;SDS011;6689;53.400;12.486;2023-07-13T06:03:10;4.32;;;2.13;;
13244;SDS011;6689;53.400;12.486;2023-07-13T06:05:38;3.03;;;2.17;;
13244;SDS011;6689;53.400;12.486;2023-07-13T06:08:06;4.28;;;2.25;;
13244;SDS011;6689;53.400;12.486;2023-07-13T06:10:47;5.18;;;2.58;;
13244;SDS011;6689;53.400;12.486;2023-07-13T06:13:14;6.22;;;2.67;;
13244;SDS011;6689;53.400;12.486;2023-07-13T06:15:47;5.22;;;2.40;;
13244;SDS011;6689;53.400;12.486;2023-07-13T06:18:15;6.65;;;2.72;;
13244;SDS011;6689;53.400;12.486;2023-07-13T06:20:43;3.45;;;2.10;;
13244;SDS011;6689;53.400;12.486;2023-07-13T06:23:10;2.53;;;1.77;;
13244;SDS011;6689;53.400;12.486;2023-07-13T06:25:37;3.13;;;1.95;;
13244;SDS011;6689;53.400;12.486;2023-07-13T06:28:07;6.53;;;2.40;;
13244;SDS011;6689;53.400;12.486;2023-07-13T06:30:35;6.43;;;1.90;;
13244;SDS011;6689;53.400;12.486;2023-07-13T06:33:05;4.70;;;1.85;;
13244;SDS011;6689;53.400;12.486;2023-07-13T06:35:33;2.80;;;1.65;;
13244;SDS011;6689;53.400;12.486;2023-07-13T06:38:00;4.20;;;2.03;;
13244;SDS011;6689;53.400;12.486;2023-07-13T06:40:29;2.53;;;1.83;;
13244;SDS011;6689;53.400;12.486;2023-07-13T06:42:57;4.90;;;2.45;;
13244;SDS011;6689;53.400;12.486;2023-07-13T06:45:26;4.13;;;1.65;;
13244;SDS011;6689;53.400;12.486;2023-07-13T06:47:53;3.67;;;1.60;;
13244;SDS011;6689;53.400;12.486;2023-07-13T06:50:20;6.63;;;1.80;;
13244;SDS011;6689;53.400;12.486;2023-07-13T06:52:47;3.08;;;1.77;;
13244;SDS011;6689;53.400;12.486;2023-07-13T06:55:15;4.40;;;1.88;;
13244;SDS011;6689;53.400;12.486;2023-07-13T06:57:42;4.35;;;1.40;;
13244;SDS011;6689;53.400;12.486;2023-07-13T07:00:10;4.32;;;2.05;;
13244;SDS011;6689;53.400;12.486;2023-07-13T07:02:40;3.05;;;1.35;;
13244;SDS011;6689;53.400;12.486;2023-07-13T07:05:07;4.43;;;2.33;;
13244;SDS011;6689;53.400;12.486;2023-07-13T07:07:34;2.67;;;1.33;;
13244;SDS011;6689;53.400;12.486;2023-07-13T07:10:01;5.45;;;1.63;;
13244;SDS011;6689;53.400;12.486;2023-07-13T07:12:29;3.53;;;1.33;;
13244;SDS011;6689;53.400;12.486;2023-07-13T07:14:56;3.25;;;1.80;;
13244;SDS011;6689;53.400;12.486;2023-07-13T07:17:24;3.97;;;1.77;;
13244;SDS011;6689;53.400;12.486;2023-07-13T07:19:53;3.65;;;1.63;;
13244;SDS011;6689;53.400;12.486;2023-07-13T07:22:20;2.75;;;1.77;;
13244;SDS011;6689;53.400;12.486;2023-07-13T07:24:47;3.97;;;1.60;;
13244;SDS011;6689;53.400;12.486;2023-07-13T07:27:16;2.30;;;1.52;;
13244;SDS011;6689;53.400;12.486;2023-07-13T07:29:43;4.07;;;1.95;;
13244;SDS011;6689;53.400;12.486;2023-07-13T07:32:10;2.58;;;1.42;;
13244;SDS011;6689;53.400;12.486;2023-07-13T07:34:38;3.50;;;1.83;;
13244;SDS011;6689;53.400;12.486;2023-07-13T07:37:09;3.30;;;1.50;;
13244;SDS011;6689;53.400;12.486;2023-07-13T07:39:38;4.18;;;1.90;;
13244;SDS011;6689;53.400;12.486;2023-07-13T07:42:06;4.45;;;1.40;;
13244;SDS011;6689;53.400;12.486;2023-07-13T07:44:33;4.25;;;1.52;;
13244;SDS011;6689;53.400;12.486;2023-07-13T07:47:01;3.85;;;1.58;;
13244;SDS011;6689;53.400;12.486;2023-07-13T07:49:28;3.83;;;1.65;;
13244;SDS011;6689;53.400;12.486;2023-07-13T07:51:55;2.03;;;1.25;;
13244;SDS011;6689;53.400;12.486;2023-07-13T07:54:24;3.30;;;1.80;;
13244;SDS011;6689;53.400;12.486;2023-07-13T07:56:51;3.13;;;1.90;;
13244;SDS011;6689;53.400;12.486;2023-07-13T07:59:18;5.03;;;1.58;;
13244;SDS011;6689;53.400;12.486;2023-07-13T08:01:46;3.72;;;1.40;;
13244;SDS011;6689;53.400;12.486;2023-07-13T08:04:15;3.35;;;1.55;;
13244;SDS011;6689;53.400;12.486;2023-07-13T08:06:43;6.15;;;2.00;;
13244;SDS011;6689;53.400;12.486;2023-07-13T08:09:10;3.58;;;1.80;;
13244;SDS011;6689;53.400;12.486;2023-07-13T08:11:39;5.60;;;2.00;;
13244;SDS011;6689;53.400;12.486;2023-07-13T08:14:06;3.72;;;1.83;;
13244;SDS011;6689;53.400;12.486;2023-07-13T08:16:34;5.28;;;1.58;;
13244;SDS011;6689;53.400;12.486;2023-07-13T08:19:01;3.55;;;2.00;;
13244;SDS011;6689;53.400;12.486;2023-07-13T08:21:29;5.80;;;2.00;;
13244;SDS011;6689;53.400;12.486;2023-07-13T08:23:56;4.97;;;1.40;;
13244;SDS011;6689;53.400;12.486;2023-07-13T08:26:24;3.22;;;1.50;;
13244;SDS011;6689;53.400;12.486;2023-07-13T08:28:52;4.20;;;1.75;;
13244;SDS011;6689;53.400;12.486;2023-07-13T08:31:19;5.38;;;1.60;;
13244;SDS011;6689;53.400;12.486;2023-07-13T08:33:47;7.05;;;1.65;;
13244;SDS011;6689;53.400;12.486;2023-07-13T08:36:14;4.75;;;1.60;;
13244;SDS011;6689;53.400;12.486;2023-07-13T08:38:41;6.40;;;2.00;;
13244;SDS011;6689;53.400;12.486;2023-07-13T08:41:12;4.43;;;1.63;;
13244;SDS011;6689;53.400;12.486;2023-07-13T08:43:41;4.40;;;1.67;;
13244;SDS011;6689;53.400;12.486;2023-07-13T08:46:13;3.65;;;1.83;;
13244;SDS011;6689;53.400;12.486;2023-07-13T08:48:44;10.15;;;2.88;;
13244;SDS011;6689;53.400;12.486;2023-07-13T08:51:20;4.40;;;1.83;;
13244;SDS011;6689;53.400;12.486;2023-07-13T08:53:55;9.48;;;3.25;;
13244;SDS011;6689;53.400;12.486;2023-07-13T08:56:26;4.97;;;1.80;;
13244;SDS011;6689;53.400;12.486;2023-07-13T08:58:55;4.35;;;1.80;;
13244;SDS011;6689;53.400;12.486;2023-07-13T09:01:28;3.55;;;1.73;;
13244;SDS011;6689;53.400;12.486;2023-07-13T09:04:01;5.22;;;1.90;;
13244;SDS011;6689;53.400;12.486;2023-07-13T09:06:39;6.10;;;1.85;;
13244;SDS011;6689;53.400;12.486;2023-07-13T09:09:15;2.80;;;1.80;;
13244;SDS011;6689;53.400;12.486;2023-07-13T09:11:50;5.35;;;2.30;;
13244;SDS011;6689;53.400;12.486;2023-07-13T09:14:37;9.57;;;2.30;;
13244;SDS011;6689;53.400;12.486;2023-07-13T09:17:12;7.22;;;2.53;;
13244;SDS011;6689;53.400;12.486;2023-07-13T09:19:43;6.07;;;2.08;;
13244;SDS011;6689;53.400;12.486;2023-07-13T09:22:17;5.75;;;1.90;;
13244;SDS011;6689;53.400;12.486;2023-07-13T09:24:54;5.07;;;2.05;;
13244;SDS011;6689;53.400;12.486;2023-07-13T09:27:33;7.45;;;2.15;;
13244;SDS011;6689;53.400;12.486;2023-07-13T09:30:15;5.72;;;2.60;;
13244;SDS011;6689;53.400;12.486;2023-07-13T09:32:54;6.53;;;2.17;;
13244;SDS011;6689;53.400;12.486;2023-07-13T09:35:24;6.35;;;2.10;;
13244;SDS011;6689;53.400;12.486;2023-07-13T09:37:57;5.97;;;2.10;;
13244;SDS011;6689;53.400;12.486;2023-07-13T09:40:28;5.85;;;2.03;;
13244;SDS011;6689;53.400;12.486;2023-07-13T09:43:05;6.65;;;2.67;;
13244;SDS011;6689;53.400;12.486;2023-07-13T09:45:37;5.10;;;1.98;;
13244;SDS011;6689;53.400;12.486;2023-07-13T09:48:07;10.23;;;2.42;;
13244;SDS011;6689;53.400;12.486;2023-07-13T09:50:39;8.27;;;2.03;;
13244;SDS011;6689;53.400;12.486;2023-07-13T09:53:11;6.97;;;2.10;;
13244;SDS011;6689;53.400;12.486;2023-07-13T09:55:40;6.03;;;2.20;;
13244;SDS011;6689;53.400;12.486;2023-07-13T09:58:10;5.28;;;2.30;;
13244;SDS011;6689;53.400;12.486;2023-07-13T10:00:41;4.38;;;2.40;;
13244;SDS011;6689;53.400;12.486;2023-07-13T10:05:54;5.88;;;2.58;;
13244;SDS011;6689;53.400;12.486;2023-07-13T10:08:37;9.13;;;2.78;;
13244;SDS011;6689;53.400;12.486;2023-07-13T10:11:08;4.82;;;2.53;;
13244;SDS011;6689;53.400;12.486;2023-07-13T10:13:37;5.25;;;2.30;;
13244;SDS011;6689;53.400;12.486;2023-07-13T10:16:08;5.53;;;2.40;;
13244;SDS011;6689;53.400;12.486;2023-07-13T10:18:40;5.32;;;1.95;;
13244;SDS011;6689;53.400;12.486;2023-07-13T10:21:12;3.92;;;1.70;;
13244;SDS011;6689;53.400;12.486;2023-07-13T10:23:43;7.32;;;2.42;;
13244;SDS011;6689;53.400;12.486;2023-07-13T10:26:26;3.38;;;2.03;;
13244;SDS011;6689;53.400;12.486;2023-07-13T10:29:01;4.40;;;1.80;;
13244;SDS011;6689;53.400;12.486;2023-07-13T10:31:35;4.88;;;2.10;;
13244;SDS011;6689;53.400;12.486;2023-07-13T10:34:07;3.75;;;1.95;;
13244;SDS011;6689;53.400;12.486;2023-07-13T10:36:38;3.80;;;1.42;;
13244;SDS011;6689;53.400;12.486;2023-07-13T10:39:09;3.10;;;1.60;;
13244;SDS011;6689;53.400;12.486;2023-07-13T10:41:43;3.65;;;1.33;;
13244;SDS011;6689;53.400;12.486;2023-07-13T10:44:15;2.22;;;1.23;;
13244;SDS011;6689;53.400;12.486;2023-07-13T10:46:50;4.13;;;1.27;;
13244;SDS011;6689;53.400;12.486;2023-07-13T10:49:21;3.85;;;1.50;;
13244;SDS011;6689;53.400;12.486;2023-07-13T10:51:49;5.03;;;1.40;;
13244;SDS011;6689;53.400;12.486;2023-07-13T10:54:19;6.30;;;1.52;;
13244;SDS011;6689;53.400;12.486;2023-07-13T10:56:51;3.90;;;1.40;;
13244;SDS011;6689;53.400;12.486;2023-07-13T10:59:33;5.80;;;2.05;;
13244;SDS011;6689;53.400;12.486;2023-07-13T11:02:08;2.95;;;1.23;;
13244;SDS011;6689;53.400;12.486;2023-07-13T11:04:43;3.42;;;1.85;;
13244;SDS011;6689;53.400;12.486;2023-07-13T11:07:19;3.30;;;1.70;;
13244;SDS011;6689;53.400;12.486;2023-07-13T11:09:51;3.88;;;1.52;;
13244;SDS011;6689;53.400;12.486;2023-07-13T11:12:27;6.78;;;2.15;;
13244;SDS011;6689;53.400;12.486;2023-07-13T11:15:10;2.10;;;1.20;;
13244;SDS011;6689;53.400;12.486;2023-07-13T11:17:47;4.88;;;1.40;;
13244;SDS011;6689;53.400;12.486;2023-07-13T11:29:14;3.25;;;1.80;;
13244;SDS011;6689;53.400;12.486;2023-07-13T11:31:51;4.45;;;1.63;;
13244;SDS011;6689;53.400;12.486;2023-07-13T11:34:21;3.20;;;1.45;;
13244;SDS011;6689;53.400;12.486;2023-07-13T11:36:54;5.82;;;1.90;;
13244;SDS011;6689;53.400;12.486;2023-07-13T11:39:27;4.60;;;1.55;;
13244;SDS011;6689;53.400;12.486;2023-07-13T11:41:59;6.03;;;1.75;;
13244;SDS011;6689;53.400;12.486;2023-07-13T11:44:30;5.60;;;1.30;;
13244;SDS011;6689;53.400;12.486;2023-07-13T11:47:00;2.97;;;1.48;;
13244;SDS011;6689;53.400;12.486;2023-07-13T11:49:40;5.63;;;1.42;;
13244;SDS011;6689;53.400;12.486;2023-07-13T11:52:11;2.53;;;1.23;;
13244;SDS011;6689;53.400;12.486;2023-07-13T11:54:46;3.92;;;1.60;;
13244;SDS011;6689;53.400;12.486;2023-07-13T11:57:19;3.58;;;1.23;;
13244;SDS011;6689;53.400;12.486;2023-07-13T11:59:51;2.67;;;1.30;;
13244;SDS011;6689;53.400;12.486;2023-07-13T12:02:27;2.67;;;1.10;;
13244;SDS011;6689;53.400;12.486;2023-07-13T12:04:58;5.70;;;1.40;;
13244;SDS011;6689;53.400;12.486;2023-07-13T12:07:28;3.58;;;1.13;;
13244;SDS011;6689;53.400;12.486;2023-07-13T12:10:02;5.68;;;1.27;;
13244;SDS011;6689;53.400;12.486;2023-07-13T12:15:13;2.30;;;1.20;;
13244;SDS011;6689;53.400;12.486;2023-07-13T12:17:40;2.28;;;1.10;;
13244;SDS011;6689;53.400;12.486;2023-07-13T12:22:47;2.75;;;1.27;;
13244;SDS011;6689;53.400;12.486;2023-07-13T12:25:17;5.78;;;1.10;;
13244;SDS011;6689;53.400;12.486;2023-07-13T12:27:46;2.70;;;1.10;;
13244;SDS011;6689;53.400;12.486;2023-07-13T12:30:23;2.33;;;0.95;;
13244;SDS011;6689;53.400;12.486;2023-07-13T12:33:01;4.63;;;1.55;;
13244;SDS011;6689;53.400;12.486;2023-07-13T12:35:38;4.32;;;1.33;;
13244;SDS011;6689;53.400;12.486;2023-07-13T12:38:09;3.88;;;1.20;;
13244;SDS011;6689;53.400;12.486;2023-07-13T12:40:39;3.47;;;1.85;;
13244;SDS011;6689;53.400;12.486;2023-07-13T12:43:10;1.38;;;0.80;;
13244;SDS011;6689;53.400;12.486;2023-07-13T12:45:40;2.35;;;1.15;;
13244;SDS011;6689;53.400;12.486;2023-07-13T12:48:22;1.92;;;1.00;;
13244;SDS011;6689;53.400;12.486;2023-07-13T12:50:51;5.55;;;1.50;;
13244;SDS011;6689;53.400;12.486;2023-07-13T12:53:22;3.83;;;1.10;;
13244;SDS011;6689;53.400;12.486;2023-07-13T12:56:00;3.50;;;1.70;;
13244;SDS011;6689;53.400;12.486;2023-07-13T12:58:31;2.60;;;1.10;;
13244;SDS011;6689;53.400;12.486;2023-07-13T13:01:03;4.60;;;1.15;;
13244;SDS011;6689;53.400;12.486;2023-07-13T13:03:33;6.35;;;1.67;;
13244;SDS011;6689;53.400;12.486;2023-07-13T13:06:04;2.15;;;1.10;;
13244;SDS011;6689;53.400;12.486;2023-07-13T13:08:35;3.95;;;1.60;;
13244;SDS011;6689;53.400;12.486;2023-07-13T13:11:07;2.15;;;1.00;;
13244;SDS011;6689;53.400;12.486;2023-07-13T13:13:35;1.85;;;0.90;;
13244;SDS011;6689;53.400;12.486;2023-07-13T13:16:04;2.75;;;1.17;;
13244;SDS011;6689;53.400;12.486;2023-07-13T13:18:41;3.55;;;1.20;;
13244;SDS011;6689;53.400;12.486;2023-07-13T13:21:10;2.40;;;0.75;;
13244;SDS011;6689;53.400;12.486;2023-07-13T13:23:37;5.32;;;0.90;;
13244;SDS011;6689;53.400;12.486;2023-07-13T13:26:08;2.95;;;0.93;;
13244;SDS011;6689;53.400;12.486;2023-07-13T13:28:38;2.78;;;1.00;;
13244;SDS011;6689;53.400;12.486;2023-07-13T13:31:07;2.17;;;0.95;;
13244;SDS011;6689;53.400;12.486;2023-07-13T13:33:38;2.05;;;1.02;;
13244;SDS011;6689;53.400;12.486;2023-07-13T13:36:19;3.38;;;1.27;;
13244;SDS011;6689;53.400;12.486;2023-07-13T13:38:49;3.38;;;1.00;;
13244;SDS011;6689;53.400;12.486;2023-07-13T13:41:18;2.92;;;0.85;;
13244;SDS011;6689;53.400;12.486;2023-07-13T13:43:46;3.08;;;1.15;;
13244;SDS011;6689;53.400;12.486;2023-07-13T13:46:15;2.13;;;1.00;;
13244;SDS011;6689;53.400;12.486;2023-07-13T13:48:44;2.22;;;1.08;;
13244;SDS011;6689;53.400;12.486;2023-07-13T13:51:14;5.07;;;1.40;;
13244;SDS011;6689;53.400;12.486;2023-07-13T13:53:43;3.95;;;1.35;;
13244;SDS011;6689;53.400;12.486;2023-07-13T13:56:11;3.58;;;1.45;;
13244;SDS011;6689;53.400;12.486;2023-07-13T13:58:40;3.00;;;1.27;;
13244;SDS011;6689;53.400;12.486;2023-07-13T14:01:11;3.83;;;1.40;;
13244;SDS011;6689;53.400;12.486;2023-07-13T14:03:41;3.65;;;1.08;;
13244;SDS011;6689;53.400;12.486;2023-07-13T14:06:08;4.22;;;1.60;;
13244;SDS011;6689;53.400;12.486;2023-07-13T14:08:39;4.05;;;1.35;;
13244;SDS011;6689;53.400;12.486;2023-07-13T14:11:07;2.50;;;1.10;;
13244;SDS011;6689;53.400;12.486;2023-07-13T14:13:47;1.83;;;0.98;;
13244;SDS011;6689;53.400;12.486;2023-07-13T14:16:17;1.77;;;0.98;;
13244;SDS011;6689;53.400;12.486;2023-07-13T14:18:47;2.65;;;1.40;;
13244;SDS011;6689;53.400;12.486;2023-07-13T14:21:16;2.90;;;1.20;;
13244;SDS011;6689;53.400;12.486;2023-07-13T14:23:46;2.35;;;1.17;;
13244;SDS011;6689;53.400;12.486;2023-07-13T14:26:16;4.25;;;1.40;;
13244;SDS011;6689;53.400;12.486;2023-07-13T14:28:47;3.42;;;1.08;;
13244;SDS011;6689;53.400;12.486;2023-07-13T14:31:17;2.05;;;1.00;;
13244;SDS011;6689;53.400;12.486;2023-07-13T14:33:45;2.22;;;1.30;;
13244;SDS011;6689;53.400;12.486;2023-07-13T14:36:22;4.30;;;1.52;;
13244;SDS011;6689;53.400;12.486;2023-07-13T14:38:53;3.33;;;1.55;;
13244;SDS011;6689;53.400;12.486;2023-07-13T14:41:20;2.83;;;1.38;;
13244;SDS011;6689;53.400;12.486;2023-07-13T14:43:57;3.10;;;1.58;;
13244;SDS011;6689;53.400;12.486;2023-07-13T14:46:27;2.45;;;1.20;;
13244;SDS011;6689;53.400;12.486;2023-07-13T14:48:59;3.88;;;1.58;;
13244;SDS011;6689;53.400;12.486;2023-07-13T14:51:29;3.78;;;1.38;;
13244;SDS011;6689;53.400;12.486;2023-07-13T14:53:58;3.35;;;1.50;;
13244;SDS011;6689;53.400;12.486;2023-07-13T14:56:29;2.45;;;1.00;;
13244;SDS011;6689;53.400;12.486;2023-07-13T14:58:57;4.22;;;1.27;;
13244;SDS011;6689;53.400;12.486;2023-07-13T15:01:30;2.78;;;1.48;;
13244;SDS011;6689;53.400;12.486;2023-07-13T15:03:57;4.60;;;1.50;;
13244;SDS011;6689;53.400;12.486;2023-07-13T15:06:25;6.32;;;1.80;;
13244;SDS011;6689;53.400;12.486;2023-07-13T15:08:54;3.70;;;2.00;;
13244;SDS011;6689;53.400;12.486;2023-07-13T15:11:21;16.98;;;1.88;;
13244;SDS011;6689;53.400;12.486;2023-07-13T15:13:48;4.38;;;1.40;;
13244;SDS011;6689;53.400;12.486;2023-07-13T15:16:18;3.47;;;1.40;;
13244;SDS011;6689;53.400;12.486;2023-07-13T15:18:50;4.57;;;1.65;;
13244;SDS011;6689;53.400;12.486;2023-07-13T15:21:19;14.10;;;2.85;;
13244;SDS011;6689;53.400;12.486;2023-07-13T15:23:48;5.82;;;2.33;;
13244;SDS011;6689;53.400;12.486;2023-07-13T15:26:17;9.45;;;2.58;;